createdAt,value
2018-12-31T00:02:37.995Z,86.40
2018-12-31T00:05:42.433Z,86.44
2018-12-31T00:08:47.135Z,86.33
2018-12-31T00:11:51.578Z,86.44
2018-12-31T00:14:56.051Z,85.79
2018-12-31T00:18:00.805Z,86.01
2018-12-31T00:21:05.587Z,86.25
2018-12-31T00:24:10.374Z,85.88
2018-12-31T00:27:14.842Z,85.37
2018-12-31T00:30:19.640Z,85.30
2018-12-31T00:33:24.088Z,85.18
2018-12-31T00:36:28.782Z,85.91
2018-12-31T00:39:33.275Z,86.32
2018-12-31T00:42:38.066Z,86.08
2018-12-31T00:45:42.482Z,86.08
2018-12-31T00:48:47.018Z,85.63
2018-12-31T00:51:51.455Z,86.13
2018-12-31T00:54:56.250Z,86.25
2018-12-31T00:58:00.981Z,85.67
2018-12-31T01:01:05.413Z,85.42
2018-12-31T01:04:10.237Z,85.99
2018-12-31T01:07:14.965Z,86.65
2018-12-31T01:10:19.409Z,86.60
2018-12-31T01:13:23.850Z,86.78
2018-12-31T01:16:28.544Z,86.76
2018-12-31T01:19:33.277Z,86.39
2018-12-31T01:22:38.105Z,86.24
2018-12-31T01:25:43.271Z,86.64
2018-12-31T01:28:47.858Z,86.88
2018-12-31T01:31:52.598Z,86.89
2018-12-31T01:34:57.332Z,87.18
2018-12-31T01:38:01.760Z,87.23
2018-12-31T01:41:06.200Z,87.43
2018-12-31T01:44:10.642Z,87.45
2018-12-31T01:47:15.330Z,87.43
2018-12-31T01:50:19.772Z,87.02
2018-12-31T01:53:24.494Z,87.13
2018-12-31T01:56:28.929Z,87.31
2018-12-31T01:59:33.361Z,87.49
2018-12-31T02:02:37.786Z,87.45
2018-12-31T02:05:42.490Z,87.59
2018-12-31T02:08:46.922Z,87.73
2018-12-31T02:11:51.356Z,87.85
2018-12-31T02:14:55.796Z,88.21
2018-12-31T02:18:00.222Z,88.65
2018-12-31T02:21:04.833Z,88.51
2018-12-31T02:24:09.643Z,88.60
2018-12-31T02:27:14.376Z,88.79
2018-12-31T02:30:18.822Z,89.10
2018-12-31T02:33:23.244Z,88.96
2018-12-31T02:36:28.052Z,89.08
2018-12-31T02:39:32.480Z,88.79
2018-12-31T02:42:36.918Z,89.26
2018-12-31T02:45:41.407Z,89.37
2018-12-31T02:48:45.825Z,89.25
2018-12-31T02:51:50.583Z,89.58
2018-12-31T02:54:55.310Z,89.63
2018-12-31T02:58:00.036Z,89.53
2018-12-31T03:01:04.480Z,89.19
2018-12-31T03:04:09.785Z,88.87
2018-12-31T03:07:14.495Z,88.81
2018-12-31T03:10:18.934Z,88.54
2018-12-31T03:13:23.727Z,88.44
2018-12-31T03:16:28.159Z,88.32
2018-12-31T03:19:32.590Z,88.48
2018-12-31T03:22:37.024Z,88.49
2018-12-31T03:25:41.463Z,88.29
2018-12-31T03:28:45.889Z,87.76
2018-12-31T03:31:50.649Z,88.02
2018-12-31T03:34:55.083Z,88.15
2018-12-31T03:37:59.523Z,88.12
2018-12-31T03:41:04.230Z,88.36
2018-12-31T03:44:08.654Z,88.43
2018-12-31T03:47:13.400Z,87.98
2018-12-31T03:50:18.111Z,87.74
2018-12-31T03:53:22.553Z,87.64
2018-12-31T03:56:26.998Z,87.78
2018-12-31T03:59:31.486Z,87.89
2018-12-31T04:02:35.928Z,88.29
2018-12-31T04:05:40.638Z,88.22
2018-12-31T04:08:45.071Z,88.21
2018-12-31T04:11:49.503Z,87.96
2018-12-31T04:14:54.229Z,87.51
2018-12-31T04:17:58.668Z,87.57
2018-12-31T04:21:03.097Z,87.67
2018-12-31T04:24:07.530Z,87.61
2018-12-31T04:27:11.963Z,87.66
2018-12-31T04:30:16.442Z,87.60
2018-12-31T04:33:20.902Z,87.65
2018-12-31T04:36:25.314Z,87.56
2018-12-31T04:39:29.749Z,87.44
2018-12-31T04:42:34.188Z,87.86
2018-12-31T04:45:38.611Z,88.32
2018-12-31T04:48:43.092Z,88.55
2018-12-31T04:51:47.480Z,88.78
2018-12-31T04:54:52.232Z,89.15
2018-12-31T04:57:56.670Z,89.35
2018-12-31T05:01:01.098Z,89.41
2018-12-31T05:04:05.807Z,89.26
2018-12-31T05:07:10.235Z,89.21
2018-12-31T05:10:14.680Z,88.41
2018-12-31T05:13:19.392Z,88.36
2018-12-31T05:16:23.821Z,88.78
2018-12-31T05:19:28.546Z,88.95
2018-12-31T05:22:33.273Z,88.72
2018-12-31T05:25:37.710Z,89.49
2018-12-31T05:28:42.446Z,89.40
2018-12-31T05:31:46.868Z,89.84
2018-12-31T05:34:51.316Z,89.44
2018-12-31T05:37:55.750Z,89.67
2018-12-31T05:41:00.531Z,90.16
2018-12-31T05:44:04.971Z,90.21
2018-12-31T05:47:09.693Z,89.35
2018-12-31T05:50:14.419Z,89.17
2018-12-31T05:53:18.858Z,88.02
2018-12-31T05:56:23.570Z,87.62
2018-12-31T05:59:28.093Z,88.21
2018-12-31T06:02:32.830Z,88.15
2018-12-31T06:05:37.557Z,88.22
2018-12-31T06:08:41.994Z,88.29
2018-12-31T06:11:46.422Z,89.07
2018-12-31T06:14:50.858Z,89.02
2018-12-31T06:17:55.294Z,89.15
2018-12-31T06:20:59.724Z,89.13
2018-12-31T06:24:04.163Z,89.62
2018-12-31T06:27:08.932Z,89.39
2018-12-31T06:30:13.439Z,89.53
2018-12-31T06:33:17.871Z,89.52
2018-12-31T06:36:22.352Z,89.48
2018-12-31T06:39:26.786Z,89.92
2018-12-31T06:42:31.213Z,90.13
2018-12-31T06:45:35.641Z,89.78
2018-12-31T06:48:40.427Z,89.81
2018-12-31T06:51:44.856Z,90.07
2018-12-31T06:54:49.292Z,90.14
2018-12-31T06:57:53.722Z,90.09
2018-12-31T07:00:58.161Z,90.03
2018-12-31T07:04:04.751Z,90.06
2018-12-31T07:07:09.202Z,90.00
2018-12-31T07:10:13.642Z,89.89
2018-12-31T07:13:18.091Z,89.75
2018-12-31T07:16:22.527Z,89.68
2018-12-31T07:19:27.299Z,89.07
2018-12-31T07:22:31.734Z,88.79
2018-12-31T07:25:36.167Z,87.99
2018-12-31T07:28:40.589Z,87.81
2018-12-31T07:31:45.020Z,87.92
2018-12-31T07:34:49.456Z,88.14
2018-12-31T07:37:53.880Z,87.76
2018-12-31T07:40:58.588Z,87.81
2018-12-31T07:44:03.015Z,88.12
2018-12-31T07:47:07.443Z,88.02
2018-12-31T07:50:12.261Z,88.34
2018-12-31T07:53:16.919Z,88.39
2018-12-31T07:56:21.353Z,88.21
2018-12-31T07:59:26.821Z,87.72
2018-12-31T08:02:31.253Z,88.18
2018-12-31T08:05:35.686Z,87.98
2018-12-31T08:08:40.119Z,88.09
2018-12-31T08:11:44.573Z,88.38
2018-12-31T08:14:49.282Z,87.66
2018-12-31T08:17:54.019Z,87.94
2018-12-31T08:20:58.448Z,88.34
2018-12-31T08:24:03.185Z,88.41
2018-12-31T08:27:07.626Z,88.73
2018-12-31T08:30:12.320Z,87.88
2018-12-31T08:33:16.752Z,87.78
2018-12-31T08:36:21.843Z,87.91
2018-12-31T08:39:26.725Z,88.25
2018-12-31T08:42:31.159Z,88.46
2018-12-31T08:45:35.602Z,87.91
2018-12-31T08:48:40.026Z,87.79
2018-12-31T08:51:44.458Z,87.71
2018-12-31T08:54:49.151Z,87.86
2018-12-31T08:57:53.592Z,87.43
2018-12-31T09:00:58.027Z,86.92
2018-12-31T09:04:02.733Z,86.96
2018-12-31T09:07:07.162Z,87.54
2018-12-31T09:10:11.612Z,87.22
2018-12-31T09:13:16.308Z,86.91
2018-12-31T09:16:20.741Z,86.87
2018-12-31T09:19:25.179Z,86.75
2018-12-31T09:22:29.604Z,87.62
2018-12-31T09:25:34.305Z,87.40
2018-12-31T09:28:38.729Z,87.54
2018-12-31T09:31:43.161Z,88.09
2018-12-31T09:34:47.587Z,88.72
2018-12-31T09:37:52.309Z,88.80
2018-12-31T09:40:56.750Z,88.81
2018-12-31T09:44:01.171Z,88.72
2018-12-31T09:47:05.607Z,88.35
2018-12-31T09:50:10.029Z,87.90
2018-12-31T09:53:14.471Z,88.49
2018-12-31T09:56:19.254Z,88.71
2018-12-31T09:59:23.983Z,88.61
2018-12-31T10:02:28.430Z,88.06
2018-12-31T10:05:32.868Z,87.46
2018-12-31T10:08:37.562Z,87.48
2018-12-31T10:11:42.327Z,87.54
2018-12-31T10:14:47.847Z,87.10
2018-12-31T10:17:52.281Z,87.14
2018-12-31T10:20:56.714Z,87.06
2018-12-31T10:24:01.141Z,87.34
2018-12-31T10:27:05.840Z,87.36
2018-12-31T10:30:10.268Z,87.26
2018-12-31T10:33:14.707Z,87.35
2018-12-31T10:36:19.134Z,87.75
2018-12-31T10:39:23.951Z,86.97
2018-12-31T10:42:28.383Z,86.53
2018-12-31T10:45:32.805Z,86.68
2018-12-31T10:48:37.237Z,86.62
2018-12-31T10:51:41.656Z,87.25
2018-12-31T10:54:46.084Z,87.03
2018-12-31T10:57:50.792Z,86.51
2018-12-31T11:00:55.218Z,85.23
2018-12-31T11:03:59.650Z,85.56
2018-12-31T11:07:04.076Z,85.75
2018-12-31T11:10:09.521Z,85.85
2018-12-31T11:13:13.964Z,85.94
2018-12-31T11:16:18.398Z,85.84
2018-12-31T11:19:22.836Z,85.53
2018-12-31T11:22:27.260Z,85.96
2018-12-31T11:25:32.043Z,85.37
2018-12-31T11:28:36.483Z,85.04
2018-12-31T11:31:40.912Z,85.11
2018-12-31T11:34:45.639Z,85.13
2018-12-31T11:37:50.070Z,84.99
2018-12-31T11:40:54.549Z,85.06
2018-12-31T11:43:58.999Z,85.18
2018-12-31T11:47:03.440Z,84.43
2018-12-31T11:50:07.949Z,85.47
2018-12-31T11:53:12.410Z,85.60
2018-12-31T11:56:16.903Z,85.36
2018-12-31T11:59:21.588Z,84.76
2018-12-31T12:02:26.054Z,84.98
2018-12-31T12:05:30.784Z,85.04
2018-12-31T12:08:35.256Z,85.17
2018-12-31T12:11:39.700Z,85.54
2018-12-31T12:14:44.130Z,85.13
2018-12-31T12:17:48.562Z,85.51
2018-12-31T12:20:53.387Z,85.29
2018-12-31T12:23:57.826Z,85.74
2018-12-31T12:27:02.256Z,85.77
2018-12-31T12:30:09.022Z,86.45
2018-12-31T12:33:13.734Z,87.09
2018-12-31T12:36:18.176Z,86.68
2018-12-31T12:39:22.616Z,87.17
2018-12-31T12:42:27.355Z,87.40
2018-12-31T12:45:32.287Z,87.83
2018-12-31T12:48:36.960Z,87.65
2018-12-31T12:51:41.398Z,87.68
2018-12-31T12:54:45.828Z,87.46
2018-12-31T12:57:50.254Z,86.96
2018-12-31T13:00:54.692Z,86.47
2018-12-31T13:03:59.114Z,86.50
2018-12-31T13:07:03.654Z,86.43
2018-12-31T13:10:08.144Z,85.08
2018-12-31T13:13:12.572Z,84.43
2018-12-31T13:16:17.025Z,83.83
2018-12-31T13:19:21.455Z,83.18
2018-12-31T13:22:25.886Z,84.00
2018-12-31T13:25:30.810Z,83.92
2018-12-31T13:28:35.245Z,83.39
2018-12-31T13:31:39.668Z,82.98
2018-12-31T13:34:44.390Z,84.69
2018-12-31T13:37:48.823Z,84.39
2018-12-31T13:40:53.851Z,84.03
2018-12-31T13:43:58.274Z,84.98
2018-12-31T13:47:02.722Z,85.34
2018-12-31T13:50:07.237Z,84.92
2018-12-31T13:53:11.662Z,84.88
2018-12-31T13:56:16.480Z,84.50
2018-12-31T13:59:20.905Z,84.38
2018-12-31T14:02:25.622Z,83.95
2018-12-31T14:05:30.056Z,84.20
2018-12-31T14:08:34.492Z,84.95
2018-12-31T14:11:38.926Z,85.18
2018-12-31T14:14:43.841Z,85.33
2018-12-31T14:17:48.294Z,84.81
2018-12-31T14:20:52.736Z,84.15
2018-12-31T14:23:58.813Z,83.39
2018-12-31T14:27:03.250Z,82.80
2018-12-31T14:30:09.403Z,81.61
2018-12-31T14:33:14.167Z,82.63
2018-12-31T14:36:18.598Z,83.49
2018-12-31T14:39:23.025Z,82.76
2018-12-31T14:42:27.464Z,82.99
2018-12-31T14:45:31.892Z,83.35
2018-12-31T14:48:36.633Z,83.83
2018-12-31T14:51:41.053Z,84.16
2018-12-31T14:54:45.749Z,84.66
2018-12-31T14:57:50.481Z,84.62
2018-12-31T15:00:55.217Z,85.01
2018-12-31T15:03:59.943Z,85.60
2018-12-31T15:07:04.383Z,84.65
2018-12-31T15:10:09.246Z,85.07
2018-12-31T15:13:13.690Z,85.49
2018-12-31T15:16:18.126Z,86.08
2018-12-31T15:19:22.563Z,85.77
2018-12-31T15:22:29.249Z,85.49
2018-12-31T15:25:33.873Z,85.89
2018-12-31T15:28:38.314Z,86.68
2018-12-31T15:31:43.129Z,86.16
2018-12-31T15:34:47.864Z,86.37
2018-12-31T15:37:52.296Z,86.81
2018-12-31T15:40:56.727Z,86.07
2018-12-31T15:44:01.157Z,86.29
2018-12-31T15:47:05.584Z,86.40
2018-12-31T15:50:10.014Z,86.15
2018-12-31T15:53:14.452Z,85.70
2018-12-31T15:56:19.129Z,85.70
2018-12-31T15:59:25.446Z,85.89
2018-12-31T16:02:29.717Z,86.18
2018-12-31T16:05:34.141Z,86.42
2018-12-31T16:08:38.573Z,86.45
2018-12-31T16:11:42.993Z,86.68
2018-12-31T16:14:47.741Z,86.29
2018-12-31T16:17:52.445Z,86.63
2018-12-31T16:20:56.875Z,87.01
2018-12-31T16:24:01.310Z,86.50
2018-12-31T16:27:05.814Z,86.62
2018-12-31T16:30:10.582Z,87.25
2018-12-31T16:33:15.023Z,87.69
2018-12-31T16:36:19.815Z,86.99
2018-12-31T16:39:24.620Z,87.09
2018-12-31T16:42:29.057Z,86.71
2018-12-31T16:45:33.500Z,86.92
2018-12-31T16:48:37.940Z,86.14
2018-12-31T16:51:42.651Z,86.83
2018-12-31T16:54:47.144Z,86.93
2018-12-31T16:57:51.571Z,86.76
2018-12-31T17:00:56.010Z,86.78
2018-12-31T17:04:00.456Z,87.04
2018-12-31T17:07:04.883Z,86.94
2018-12-31T17:10:10.661Z,87.17
2018-12-31T17:13:15.764Z,87.25
2018-12-31T17:16:20.202Z,87.52
2018-12-31T17:19:24.921Z,87.58
2018-12-31T17:22:29.346Z,87.76
2018-12-31T17:25:33.783Z,87.60
2018-12-31T17:28:38.497Z,87.09
2018-12-31T17:31:42.924Z,86.79
2018-12-31T17:34:47.956Z,87.11
2018-12-31T17:37:52.386Z,87.58
2018-12-31T17:40:56.826Z,87.68
2018-12-31T17:44:01.260Z,87.80
2018-12-31T17:47:06.153Z,87.50
2018-12-31T17:50:10.668Z,87.25
2018-12-31T17:53:15.102Z,87.25
2018-12-31T17:56:19.529Z,87.60
2018-12-31T17:59:24.265Z,87.57
2018-12-31T18:02:29.012Z,87.59
2018-12-31T18:05:33.447Z,87.67
2018-12-31T18:08:38.166Z,87.71
2018-12-31T18:11:42.884Z,87.57
2018-12-31T18:14:47.322Z,87.43
2018-12-31T18:17:51.752Z,87.52
2018-12-31T18:20:56.190Z,87.79
2018-12-31T18:24:00.624Z,87.57
2018-12-31T18:27:05.312Z,87.25
2018-12-31T18:30:10.398Z,87.13
2018-12-31T18:33:14.825Z,87.23
2018-12-31T18:36:19.263Z,87.43
2018-12-31T18:39:24.022Z,87.57
2018-12-31T18:42:28.459Z,87.74
2018-12-31T18:45:32.899Z,87.81
2018-12-31T18:48:37.510Z,87.76
2018-12-31T18:51:42.335Z,87.71
2018-12-31T18:54:46.778Z,87.82
2018-12-31T18:57:51.204Z,87.93
2018-12-31T19:00:55.643Z,88.08
2018-12-31T19:04:00.072Z,87.95
2018-12-31T19:07:04.758Z,87.19
2018-12-31T19:10:09.205Z,87.32
2018-12-31T19:13:13.636Z,87.60
2018-12-31T19:16:18.340Z,87.11
2018-12-31T19:19:22.773Z,87.14
2018-12-31T19:22:27.218Z,87.37
2018-12-31T19:25:32.227Z,87.38
2018-12-31T19:28:36.950Z,87.50
2018-12-31T19:31:41.402Z,87.37
2018-12-31T19:34:45.837Z,87.34
2018-12-31T19:37:50.638Z,87.00
2018-12-31T19:40:55.075Z,86.35
2018-12-31T19:43:59.507Z,86.71
2018-12-31T19:47:04.318Z,87.00
2018-12-31T19:50:08.832Z,87.38
2018-12-31T19:53:13.577Z,86.95
2018-12-31T19:56:18.193Z,87.19
2018-12-31T19:59:22.634Z,87.40
2018-12-31T20:02:27.076Z,87.95
2018-12-31T20:05:31.509Z,88.02
2018-12-31T20:08:36.320Z,87.89
2018-12-31T20:11:40.758Z,87.86
2018-12-31T20:14:45.462Z,87.57
2018-12-31T20:17:50.289Z,87.59
2018-12-31T20:20:54.725Z,87.48
2018-12-31T20:23:59.164Z,87.26
2018-12-31T20:27:03.969Z,87.63
2018-12-31T20:30:08.855Z,87.62
2018-12-31T20:33:13.293Z,87.73
2018-12-31T20:36:17.733Z,87.32
2018-12-31T20:39:22.166Z,86.94
2018-12-31T20:42:26.910Z,86.76
2018-12-31T20:45:31.341Z,86.68
2018-12-31T20:48:35.784Z,87.07
2018-12-31T20:51:40.230Z,87.11
2018-12-31T20:54:44.662Z,86.88
2018-12-31T20:57:49.433Z,87.40
2018-12-31T21:00:54.239Z,87.47
2018-12-31T21:03:59.004Z,86.68
2018-12-31T21:07:03.451Z,86.64
2018-12-31T21:10:12.585Z,87.23
2018-12-31T21:13:17.032Z,87.84
2018-12-31T21:16:21.467Z,86.66
2018-12-31T21:19:25.908Z,87.06
2018-12-31T21:22:30.348Z,87.02
2018-12-31T21:25:35.083Z,87.39
2018-12-31T21:28:39.818Z,87.25
2018-12-31T21:31:44.545Z,87.29
2018-12-31T21:34:48.973Z,87.51
2018-12-31T21:37:53.446Z,87.74
2018-12-31T21:40:57.867Z,87.77
2018-12-31T21:44:02.648Z,88.20
2018-12-31T21:47:07.383Z,87.91
2018-12-31T21:50:11.817Z,87.21
2018-12-31T21:53:16.262Z,86.99
2018-12-31T21:56:20.966Z,87.19
2018-12-31T21:59:25.430Z,87.49
2018-12-31T22:02:29.845Z,87.51
2018-12-31T22:05:34.346Z,87.54
2018-12-31T22:08:39.058Z,87.45
2018-12-31T22:11:43.790Z,87.39
2018-12-31T22:14:48.231Z,87.63
2018-12-31T22:17:52.672Z,87.32
2018-12-31T22:20:57.106Z,87.71
2018-12-31T22:24:01.791Z,87.84
2018-12-31T22:27:06.525Z,87.07
2018-12-31T22:30:11.257Z,87.25
2018-12-31T22:33:15.693Z,87.73
2018-12-31T22:36:20.124Z,87.85
2018-12-31T22:39:24.576Z,87.68
2018-12-31T22:42:29.257Z,87.34
2018-12-31T22:45:33.773Z,86.87
2018-12-31T22:48:38.206Z,87.17
2018-12-31T22:51:42.640Z,87.09
2018-12-31T22:54:47.076Z,87.35
2018-12-31T22:57:51.507Z,87.74
2018-12-31T23:00:57.166Z,87.80
2018-12-31T23:04:01.612Z,87.65
2018-12-31T23:07:06.043Z,87.64
2018-12-31T23:10:10.652Z,87.66
2018-12-31T23:13:15.085Z,87.36
2018-12-31T23:16:19.522Z,86.95
2018-12-31T23:19:23.996Z,87.31
2018-12-31T23:22:28.712Z,87.19
2018-12-31T23:25:33.158Z,87.71
2018-12-31T23:28:37.603Z,87.63
2018-12-31T23:31:42.048Z,88.19
2018-12-31T23:34:46.495Z,88.24
2018-12-31T23:37:51.232Z,88.34
2018-12-31T23:40:55.676Z,88.22
2018-12-31T23:44:00.293Z,88.27
2018-12-31T23:47:04.722Z,88.29
2018-12-31T23:50:10.888Z,88.21
2018-12-31T23:53:15.318Z,88.04
2018-12-31T23:56:19.766Z,87.84
2018-12-31T23:59:24.203Z,87.59
